Metar z pełnej godziny Komunikat METAR ze strony awiacja.imgw.pl Metar G00 EPMO METAR EPMO 271400Z 24013KT 8000 BKN010 01/01 Q0995 =